createdAt,value
2018-06-08T00:02:02.215Z,80.47
2018-06-08T00:04:29.818Z,80.60
2018-06-08T00:06:57.372Z,71.60
2018-06-08T00:09:25.068Z,78.37
2018-06-08T00:11:52.620Z,73.27
2018-06-08T00:14:20.193Z,76.33
2018-06-08T00:16:48.023Z,73.57
2018-06-08T00:19:15.664Z,53.07
2018-06-08T00:21:43.308Z,56.80
2018-06-08T00:24:10.874Z,55.27
2018-06-08T00:26:38.480Z,53.40
2018-06-08T00:29:06.058Z,67.73
2018-06-08T00:31:33.667Z,70.57
2018-06-08T00:34:01.252Z,74.23
2018-06-08T00:36:28.794Z,59.97
2018-06-08T00:38:56.414Z,54.90
2018-06-08T00:41:23.984Z,60.50
2018-06-08T00:43:51.565Z,56.10
2018-06-08T00:46:19.104Z,61.73
2018-06-08T00:48:48.490Z,57.57
2018-06-08T00:51:16.200Z,54.50
2018-06-08T00:53:43.792Z,54.57
2018-06-08T00:57:20.563Z,52.03
2018-06-08T00:59:48.122Z,55.07
2018-06-08T01:02:15.840Z,56.43
2018-06-08T01:04:43.460Z,61.23
2018-06-08T01:07:11.184Z,59.23
2018-06-08T01:09:38.784Z,56.60
2018-06-08T01:12:07.019Z,57.03
2018-06-08T01:14:34.585Z,58.00
2018-06-08T01:17:05.313Z,60.30
2018-06-08T01:19:33.660Z,57.30
2018-06-08T01:22:01.673Z,54.17
2018-06-08T01:24:29.296Z,65.43
2018-06-08T01:26:56.976Z,65.27
2018-06-08T01:29:24.571Z,69.50
2018-06-08T01:31:52.228Z,68.63
2018-06-08T01:34:19.827Z,68.37
2018-06-08T01:36:47.388Z,72.03
2018-06-08T01:39:14.993Z,76.77
2018-06-08T01:41:42.557Z,80.53
2018-06-08T01:44:10.163Z,82.23
2018-06-08T01:46:37.716Z,83.43
2018-06-08T01:49:05.600Z,75.43
2018-06-08T01:51:33.293Z,81.10
2018-06-08T01:54:00.880Z,84.00
2018-06-08T01:56:29.040Z,75.37
2018-06-08T01:58:56.959Z,74.77
2018-06-08T02:01:24.574Z,73.67
2018-06-08T02:03:52.172Z,72.40
2018-06-08T02:06:19.768Z,84.13
2018-06-08T02:08:47.432Z,82.83
2018-06-08T02:11:15.393Z,87.67
2018-06-08T02:13:42.956Z,80.57
2018-06-08T02:16:10.539Z,95.50
2018-06-08T02:18:38.092Z,97.83
2018-06-08T02:21:05.679Z,84.53
2018-06-08T02:23:33.287Z,92.13
2018-06-08T02:26:00.840Z,89.73
2018-06-08T02:28:28.429Z,92.47
2018-06-08T02:30:56.124Z,86.67
2018-06-08T02:33:23.728Z,94.27
2018-06-08T02:35:51.297Z,90.17
2018-06-08T02:38:19.088Z,89.13
2018-06-08T02:40:46.684Z,84.17
2018-06-08T02:43:14.313Z,93.17
2018-06-08T02:45:41.996Z,122.40
2018-06-08T02:48:09.562Z,106.37
2018-06-08T02:50:37.180Z,127.00
2018-06-08T02:53:04.789Z,136.13
2018-06-08T02:55:32.348Z,115.87
2018-06-08T02:57:59.936Z,105.80
2018-06-08T03:00:27.564Z,98.50
2018-06-08T03:02:55.024Z,102.43
2018-06-08T03:05:22.582Z,112.07
2018-06-08T03:07:50.175Z,112.90
2018-06-08T03:10:17.722Z,111.90
2018-06-08T03:12:45.293Z,124.07
2018-06-08T03:15:12.921Z,147.03
2018-06-08T03:17:40.513Z,121.90
2018-06-08T03:20:08.170Z,118.30
2018-06-08T03:22:35.912Z,131.93
2018-06-08T03:25:03.530Z,115.07
2018-06-08T03:27:31.131Z,108.87
2018-06-08T03:29:58.689Z,115.50
2018-06-08T03:32:26.267Z,118.17
2018-06-08T03:34:53.945Z,110.73
2018-06-08T03:37:21.520Z,118.60
2018-06-08T03:39:49.065Z,130.73
2018-06-08T03:42:16.647Z,123.63
2018-06-08T03:44:44.232Z,106.03
2018-06-08T03:47:11.805Z,103.23
2018-06-08T03:49:39.428Z,98.30
2018-06-08T03:52:07.028Z,123.10
2018-06-08T03:54:34.519Z,123.70
2018-06-08T03:57:02.076Z,90.07
2018-06-08T03:59:29.686Z,82.50
2018-06-08T04:01:57.297Z,96.37
2018-06-08T04:04:24.939Z,88.47
2018-06-08T04:06:52.504Z,83.27
2018-06-08T04:09:20.104Z,70.50
2018-06-08T04:11:47.691Z,67.87
2018-06-08T04:14:15.325Z,64.13
2018-06-08T04:16:42.936Z,79.17
2018-06-08T04:19:10.604Z,68.07
2018-06-08T04:21:38.169Z,72.30
2018-06-08T04:24:05.851Z,67.60
2018-06-08T04:26:33.427Z,78.87
2018-06-08T04:29:01.007Z,66.33
2018-06-08T04:31:28.663Z,57.10
2018-06-08T04:33:56.207Z,61.37
2018-06-08T04:36:23.999Z,53.83
2018-06-08T04:38:51.632Z,45.67
2018-06-08T04:41:19.281Z,42.57
2018-06-08T04:43:47.000Z,41.20
2018-06-08T04:46:14.559Z,41.73
2018-06-08T04:48:42.111Z,33.57
2018-06-08T04:51:09.664Z,32.53
2018-06-08T04:53:37.264Z,31.77
2018-06-08T04:56:04.924Z,31.10
2018-06-08T04:58:32.505Z,26.67
2018-06-08T05:01:00.158Z,29.73
2018-06-08T05:03:27.736Z,27.23
2018-06-08T05:05:55.340Z,27.17
2018-06-08T05:08:22.974Z,25.73
2018-06-08T05:10:50.830Z,27.13
2018-06-08T05:13:18.937Z,27.20
2018-06-08T05:15:46.500Z,28.07
2018-06-08T05:18:14.119Z,29.27
2018-06-08T05:20:41.707Z,29.53
2018-06-08T05:23:09.252Z,30.90
2018-06-08T05:25:36.805Z,31.57
2018-06-08T05:28:04.417Z,30.23
2018-06-08T05:30:32.109Z,31.33
2018-06-08T05:32:59.665Z,30.77
2018-06-08T05:35:27.227Z,27.73
2018-06-08T05:37:55.023Z,26.40
2018-06-08T05:40:22.670Z,32.43
2018-06-08T05:42:50.309Z,32.67
2018-06-08T05:45:17.868Z,32.33
2018-06-08T05:47:45.555Z,33.37
2018-06-08T05:50:13.092Z,25.53
2018-06-08T05:52:40.642Z,28.00
2018-06-08T05:55:08.243Z,24.33
2018-06-08T05:57:35.736Z,23.70
2018-06-08T06:00:03.800Z,25.37
2018-06-08T06:02:31.384Z,24.00
2018-06-08T06:04:59.087Z,24.23
2018-06-08T06:07:26.756Z,22.87
2018-06-08T06:09:54.381Z,24.40
2018-06-08T06:12:22.080Z,25.47
2018-06-08T06:14:49.663Z,25.97
2018-06-08T06:17:17.219Z,23.77
2018-06-08T06:19:44.849Z,23.43
2018-06-08T06:22:12.496Z,24.37
2018-06-08T06:24:40.160Z,23.27
2018-06-08T06:27:08.176Z,22.30
2018-06-08T06:29:36.075Z,25.77
2018-06-08T06:32:05.052Z,28.40
2018-06-08T06:34:32.639Z,23.83
2018-06-08T06:37:00.433Z,24.00
2018-06-08T06:39:28.103Z,26.50
2018-06-08T06:41:56.548Z,24.77
2018-06-08T06:44:24.839Z,23.90
2018-06-08T06:46:55.480Z,24.87
2018-06-08T06:49:23.981Z,25.43
2018-06-08T06:51:51.806Z,25.50
2018-06-08T06:54:19.414Z,25.23
2018-06-08T06:56:47.110Z,25.97
2018-06-08T06:59:14.745Z,24.37
2018-06-08T07:01:42.388Z,24.43
2018-06-08T07:04:10.157Z,25.17
2018-06-08T07:06:38.227Z,26.70
2018-06-08T07:09:08.127Z,26.50
2018-06-08T07:11:35.868Z,25.67
2018-06-08T07:14:03.615Z,26.67
2018-06-08T07:16:31.189Z,28.83
2018-06-08T07:18:58.756Z,27.97
2018-06-08T07:21:27.313Z,29.03
2018-06-08T07:23:55.989Z,24.37
2018-06-08T07:26:23.819Z,26.43
2018-06-08T07:28:51.491Z,24.30
2018-06-08T07:31:21.078Z,24.20
2018-06-08T07:36:23.091Z,22.00
2018-06-08T07:38:51.235Z,21.37
2018-06-08T07:41:19.192Z,19.87
2018-06-08T07:43:46.894Z,21.60
2018-06-08T07:46:15.592Z,20.07
2018-06-08T07:48:43.224Z,19.70
2018-06-08T07:51:10.798Z,18.50
2018-06-08T07:53:38.631Z,19.63
2018-06-08T07:56:06.202Z,17.87
2018-06-08T07:58:36.365Z,17.53
2018-06-08T08:01:04.326Z,15.47
2018-06-08T08:03:32.267Z,15.03
2018-06-08T08:05:59.880Z,14.10
2018-06-08T08:08:27.513Z,14.00
2018-06-08T08:10:55.314Z,14.27
2018-06-08T08:13:23.118Z,12.67
2018-06-08T08:15:50.835Z,13.67
2018-06-08T08:18:18.462Z,12.63
2018-06-08T08:20:46.012Z,12.80
2018-06-08T08:23:13.797Z,12.07
2018-06-08T08:25:41.328Z,12.37
2018-06-08T08:28:09.092Z,11.40
2018-06-08T08:30:36.668Z,12.60
2018-06-08T08:33:04.211Z,13.03
2018-06-08T08:35:31.739Z,12.83
2018-06-08T08:37:59.452Z,12.67
2018-06-08T08:40:27.297Z,12.90
2018-06-08T08:42:55.073Z,12.67
2018-06-08T08:45:22.707Z,12.63
2018-06-08T08:47:50.228Z,12.90
2018-06-08T08:50:18.659Z,14.10
2018-06-08T08:52:46.463Z,13.00
2018-06-08T08:55:13.968Z,12.80
2018-06-08T08:57:41.508Z,12.93
2018-06-08T09:00:09.201Z,13.10
2018-06-08T09:02:36.837Z,12.43
2018-06-08T09:05:04.512Z,12.77
2018-06-08T09:07:32.815Z,13.00
2018-06-08T09:10:00.547Z,11.57
2018-06-08T09:12:28.053Z,12.47
2018-06-08T09:14:55.576Z,12.40
2018-06-08T09:17:23.099Z,12.07
2018-06-08T09:19:50.648Z,12.50
2018-06-08T09:22:18.188Z,13.47
2018-06-08T09:24:45.748Z,12.03
2018-06-08T09:27:13.276Z,12.40
2018-06-08T09:29:40.838Z,12.10
2018-06-08T09:32:08.571Z,13.47
2018-06-08T09:34:36.366Z,13.27
2018-06-08T09:37:04.099Z,14.10
2018-06-08T09:39:31.694Z,15.97
2018-06-08T09:41:59.217Z,16.77
2018-06-08T09:44:27.009Z,16.20
2018-06-08T09:46:54.531Z,17.90
2018-06-08T09:49:22.094Z,19.37
2018-06-08T09:51:49.632Z,21.40
2018-06-08T09:54:17.290Z,25.17
2018-06-08T09:56:44.886Z,24.33
2018-06-08T09:59:12.421Z,24.67
2018-06-08T10:01:40.029Z,24.67
2018-06-08T10:04:07.635Z,18.87
2018-06-08T10:06:35.316Z,18.33
2018-06-08T10:09:03.428Z,23.33
2018-06-08T10:11:31.051Z,27.53
2018-06-08T10:13:58.594Z,26.77
2018-06-08T10:16:26.185Z,18.07
2018-06-08T10:18:53.787Z,16.77
2018-06-08T10:21:22.726Z,18.60
2018-06-08T10:23:50.272Z,17.20
2018-06-08T10:26:18.217Z,16.97
2018-06-08T10:28:45.996Z,17.37
2018-06-08T10:31:13.772Z,17.10
2018-06-08T10:33:41.307Z,18.97
2018-06-08T10:36:08.844Z,18.37
2018-06-08T10:38:38.404Z,17.60
2018-06-08T10:41:05.938Z,16.30
2018-06-08T10:43:33.463Z,17.13
2018-06-08T10:46:01.005Z,17.07
2018-06-08T10:48:29.159Z,14.20
2018-06-08T10:50:56.778Z,16.00
2018-06-08T10:53:24.316Z,14.33
2018-06-08T10:55:51.871Z,14.77
2018-06-08T10:58:19.440Z,14.40
2018-06-08T11:00:47.179Z,14.50
2018-06-08T11:03:14.762Z,13.87
2018-06-08T11:05:42.256Z,13.10
2018-06-08T11:08:09.823Z,13.63
2018-06-08T11:10:37.420Z,13.07
2018-06-08T11:13:04.956Z,13.67
2018-06-08T11:15:32.480Z,11.70
2018-06-08T11:18:00.484Z,17.73
2018-06-08T11:20:28.582Z,16.93
2018-06-08T11:22:56.180Z,13.63
2018-06-08T11:25:23.752Z,20.87
2018-06-08T11:27:51.796Z,14.70
2018-06-08T11:30:19.335Z,14.03
2018-06-08T11:32:46.906Z,13.37
2018-06-08T11:35:14.469Z,13.07
2018-06-08T11:37:42.071Z,13.50
2018-06-08T11:40:09.737Z,13.43
2018-06-08T11:42:37.255Z,13.67
2018-06-08T11:45:04.847Z,12.50
2018-06-08T11:47:32.540Z,12.10
2018-06-08T11:50:00.321Z,12.03
2018-06-08T11:52:27.954Z,13.73
2018-06-08T11:54:55.544Z,16.13
2018-06-08T11:57:23.004Z,15.00
2018-06-08T11:59:50.518Z,16.27
2018-06-08T12:02:18.059Z,15.50
2018-06-08T12:04:45.575Z,16.43
2018-06-08T12:07:13.215Z,16.47
2018-06-08T12:09:40.775Z,16.63
2018-06-08T12:12:08.335Z,17.97
2018-06-08T12:14:36.506Z,15.77
2018-06-08T12:17:04.082Z,15.70
2018-06-08T12:19:31.673Z,16.50
2018-06-08T12:21:59.321Z,15.10
2018-06-08T12:24:27.012Z,16.93
2018-06-08T12:26:54.650Z,15.80
2018-06-08T12:29:22.236Z,17.47
2018-06-08T12:31:49.816Z,16.77
2018-06-08T12:34:17.464Z,19.17
2018-06-08T12:36:45.049Z,19.83
2018-06-08T12:39:13.025Z,20.13
2018-06-08T12:41:40.654Z,21.07
2018-06-08T12:44:08.243Z,23.73
2018-06-08T12:46:35.899Z,23.57
2018-06-08T12:49:04.165Z,25.93
2018-06-08T12:51:31.729Z,28.80
2018-06-08T12:53:59.287Z,28.77
2018-06-08T12:56:26.919Z,30.03
2018-06-08T12:58:54.495Z,33.53
2018-06-08T13:01:22.113Z,34.10
2018-06-08T13:03:49.588Z,34.80
2018-06-08T13:06:17.219Z,47.90
2018-06-08T13:08:44.863Z,48.13
2018-06-08T13:11:12.524Z,48.83
2018-06-08T13:13:43.089Z,44.40
2018-06-08T13:16:10.737Z,48.17
2018-06-08T13:18:41.481Z,51.97
2018-06-08T13:21:09.553Z,54.33
2018-06-08T13:23:37.708Z,58.43
2018-06-08T13:26:05.360Z,62.17
2018-06-08T13:28:33.135Z,59.97
2018-06-08T13:31:00.711Z,64.33
2018-06-08T13:33:28.259Z,70.17
2018-06-08T13:35:55.888Z,68.33
2018-06-08T13:38:23.460Z,63.90
2018-06-08T13:40:51.084Z,65.60
2018-06-08T13:43:18.746Z,66.30
2018-06-08T13:45:46.561Z,64.37
2018-06-08T13:48:14.330Z,63.97
2018-06-08T13:50:42.186Z,65.50
2018-06-08T13:53:09.792Z,63.87
2018-06-08T13:55:37.674Z,61.37
2018-06-08T13:58:05.239Z,63.43
2018-06-08T14:00:33.033Z,65.23
2018-06-08T14:03:00.601Z,62.50
2018-06-08T14:05:28.200Z,60.90
2018-06-08T14:07:55.770Z,58.70
2018-06-08T14:10:23.377Z,58.50
2018-06-08T14:12:51.107Z,64.60
2018-06-08T14:15:18.710Z,59.20
2018-06-08T14:17:46.460Z,62.13
2018-06-08T14:20:14.094Z,62.60
2018-06-08T14:22:41.716Z,63.43
2018-06-08T14:25:09.352Z,63.47
2018-06-08T14:27:36.933Z,65.67
2018-06-08T14:30:04.781Z,63.17
2018-06-08T14:32:33.830Z,62.77
2018-06-08T14:35:01.497Z,66.40
2018-06-08T14:37:29.110Z,70.70
2018-06-08T14:39:58.112Z,71.03
2018-06-08T14:42:25.833Z,70.70
2018-06-08T14:44:53.532Z,66.00
2018-06-08T14:47:21.168Z,66.73
2018-06-08T14:49:48.761Z,58.57
2018-06-08T14:52:17.545Z,58.77
2018-06-08T14:54:45.216Z,54.90
2018-06-08T14:57:12.854Z,58.87
2018-06-08T14:59:40.448Z,55.77
2018-06-08T15:02:08.136Z,57.47
2018-06-08T15:04:35.792Z,55.53
2018-06-08T15:07:03.464Z,62.73
2018-06-08T15:09:31.023Z,63.13
2018-06-08T15:11:58.817Z,63.90
2018-06-08T15:14:26.476Z,58.90
2018-06-08T15:16:53.951Z,59.40
2018-06-08T15:19:21.638Z,62.70
2018-06-08T15:21:49.264Z,71.60
2018-06-08T15:24:16.882Z,66.27
2018-06-08T15:26:44.473Z,64.20
2018-06-08T15:29:12.099Z,67.33
2018-06-08T15:31:39.681Z,63.17
2018-06-08T15:34:07.274Z,62.20
2018-06-08T15:36:35.098Z,63.37
2018-06-08T15:39:03.143Z,68.30
2018-06-08T15:41:30.981Z,69.07
2018-06-08T15:43:58.524Z,64.87
2018-06-08T15:46:26.081Z,66.50
2018-06-08T15:48:53.673Z,66.13
2018-06-08T15:51:21.260Z,66.97
2018-06-08T15:53:48.856Z,66.70
2018-06-08T15:56:16.471Z,67.40
2018-06-08T15:58:45.256Z,64.00
2018-06-08T16:01:12.872Z,67.13
2018-06-08T16:03:40.709Z,65.60
2018-06-08T16:06:10.283Z,63.97
2018-06-08T16:08:38.000Z,66.30
2018-06-08T16:11:05.698Z,65.90
2018-06-08T16:13:33.539Z,68.73
2018-06-08T16:16:01.135Z,74.17
2018-06-08T16:18:28.748Z,74.93
2018-06-08T16:20:56.381Z,74.50
2018-06-08T16:23:23.984Z,75.73
2018-06-08T16:25:51.674Z,81.03
2018-06-08T16:28:19.411Z,79.17
2018-06-08T16:30:47.065Z,79.47
2018-06-08T16:33:15.981Z,70.30
2018-06-08T16:35:43.685Z,77.23
2018-06-08T16:38:11.333Z,73.30
2018-06-08T16:40:39.068Z,74.33
2018-06-08T16:43:06.680Z,80.00
2018-06-08T16:45:34.272Z,75.50
2018-06-08T16:48:01.865Z,78.17
2018-06-08T16:50:29.451Z,76.97
2018-06-08T16:52:57.068Z,71.63
2018-06-08T16:55:24.647Z,71.37
2018-06-08T16:57:52.190Z,70.27
2018-06-08T17:00:19.990Z,70.47
2018-06-08T17:02:47.676Z,65.10
2018-06-08T17:05:15.334Z,72.03
2018-06-08T17:07:42.973Z,69.93
2018-06-08T17:10:10.573Z,71.60
2018-06-08T17:12:38.215Z,68.90
2018-06-08T17:15:05.768Z,73.03
2018-06-08T17:17:33.380Z,76.53
2018-06-08T17:20:01.048Z,67.53
2018-06-08T17:22:28.622Z,69.13
2018-06-08T17:24:56.340Z,65.57
2018-06-08T17:27:23.938Z,64.50
2018-06-08T17:29:51.730Z,68.07
2018-06-08T17:32:19.875Z,65.67
2018-06-08T17:34:47.457Z,67.03
2018-06-08T17:37:15.120Z,60.83
2018-06-08T17:39:42.705Z,60.97
2018-06-08T17:42:10.271Z,62.77
2018-06-08T17:44:38.060Z,63.77
2018-06-08T17:47:05.782Z,62.17
2018-06-08T17:49:33.703Z,61.63
2018-06-08T17:52:01.279Z,60.53
2018-06-08T17:54:28.956Z,54.00
2018-06-08T17:56:56.779Z,53.43
2018-06-08T17:59:24.441Z,55.07
2018-06-08T18:01:52.652Z,53.63
2018-06-08T18:04:22.278Z,50.60
2018-06-08T18:06:49.990Z,50.07
2018-06-08T18:09:17.600Z,48.90
2018-06-08T18:11:45.365Z,48.80
2018-06-08T18:14:12.876Z,46.57
2018-06-08T18:16:40.484Z,46.10
2018-06-08T18:19:08.098Z,46.43
2018-06-08T18:21:37.088Z,45.30
2018-06-08T18:24:04.904Z,42.90
2018-06-08T18:26:32.528Z,41.93
2018-06-08T18:29:00.274Z,40.70
2018-06-08T18:31:27.992Z,42.13
2018-06-08T18:33:55.569Z,40.17
2018-06-08T18:36:23.197Z,38.87
2018-06-08T18:38:50.917Z,39.90
2018-06-08T18:41:18.677Z,38.30
2018-06-08T18:43:49.316Z,38.43
2018-06-08T18:46:16.899Z,37.50
2018-06-08T18:48:47.580Z,37.80
2018-06-08T18:51:15.176Z,35.47
2018-06-08T18:53:42.827Z,35.87
2018-06-08T18:56:10.608Z,36.07
2018-06-08T18:58:38.528Z,38.07
2018-06-08T19:01:06.532Z,37.77
2018-06-08T19:03:34.351Z,37.47
2018-06-08T19:06:02.033Z,37.00
2018-06-08T19:08:29.629Z,36.20
2018-06-08T19:10:57.240Z,39.47
2018-06-08T19:13:24.835Z,36.97
2018-06-08T19:15:52.387Z,37.80
2018-06-08T19:18:19.961Z,39.93
2018-06-08T19:20:47.566Z,38.27
2018-06-08T19:23:15.294Z,37.97
2018-06-08T19:25:42.850Z,38.57
2018-06-08T19:28:10.633Z,39.00
2018-06-08T19:30:38.932Z,39.00
2018-06-08T19:33:06.688Z,38.97
2018-06-08T19:35:34.322Z,43.77
2018-06-08T19:38:01.950Z,41.07
2018-06-08T19:40:29.639Z,39.87
2018-06-08T19:42:57.233Z,41.40
2018-06-08T19:45:29.013Z,41.10
2018-06-08T19:47:58.703Z,41.63
2018-06-08T19:50:26.464Z,46.07
2018-06-08T19:52:54.343Z,42.77
2018-06-08T19:55:21.952Z,41.13
2018-06-08T19:57:49.637Z,44.80
2018-06-08T20:00:17.535Z,52.57
2018-06-08T20:02:45.334Z,46.23
2018-06-08T20:05:13.138Z,47.47
2018-06-08T20:07:40.801Z,47.87
2018-06-08T20:10:08.408Z,46.20
2018-06-08T20:12:35.956Z,49.00
2018-06-08T20:15:04.102Z,51.73
2018-06-08T20:17:31.764Z,52.50
2018-06-08T20:19:59.603Z,53.30
2018-06-08T20:22:27.282Z,53.93
2018-06-08T20:24:55.104Z,49.60
2018-06-08T20:27:23.005Z,55.03
2018-06-08T20:29:50.802Z,54.47
2018-06-08T20:32:18.833Z,57.87
2018-06-08T20:34:46.763Z,56.77
2018-06-08T20:37:14.554Z,53.20
2018-06-08T20:39:42.140Z,57.37
2018-06-08T20:42:09.759Z,61.73
2018-06-08T20:44:37.422Z,60.13
2018-06-08T20:47:07.508Z,53.43
2018-06-08T20:49:35.164Z,58.20
2018-06-08T20:52:02.883Z,59.50
2018-06-08T20:54:30.656Z,61.80
2018-06-08T20:57:10.319Z,61.43
2018-06-08T20:59:38.092Z,67.50
2018-06-08T21:02:06.177Z,68.00
2018-06-08T21:04:33.727Z,59.40
2018-06-08T21:07:01.368Z,60.47
2018-06-08T21:09:29.460Z,70.20
2018-06-08T21:11:57.982Z,67.90
2018-06-08T21:14:26.190Z,71.07
2018-06-08T21:16:53.936Z,60.60
2018-06-08T21:19:21.862Z,73.27
2018-06-08T21:21:49.490Z,80.23
2018-06-08T21:24:17.087Z,78.80
2018-06-08T21:26:44.724Z,77.73
2018-06-08T21:29:12.343Z,73.70
2018-06-08T21:31:39.941Z,76.27
2018-06-08T21:34:07.762Z,77.67
2018-06-08T21:36:35.407Z,79.73
2018-06-08T21:39:04.398Z,72.47
2018-06-08T21:41:32.114Z,82.17
2018-06-08T21:44:00.618Z,71.63
2018-06-08T21:46:28.410Z,80.17
2018-06-08T21:48:56.104Z,85.57
2018-06-08T21:51:23.669Z,85.67
2018-06-08T21:53:51.833Z,89.40
2018-06-08T21:56:19.454Z,89.50
2018-06-08T21:58:47.064Z,90.17
2018-06-08T22:01:14.803Z,84.57
2018-06-08T22:03:42.459Z,81.03
2018-06-08T22:06:10.640Z,84.20
2018-06-08T22:08:38.339Z,90.77
2018-06-08T22:11:06.235Z,85.93
2018-06-08T22:13:33.907Z,82.10
2018-06-08T22:16:01.514Z,75.90
2018-06-08T22:18:29.248Z,90.33
2018-06-08T22:20:56.854Z,83.67
2018-06-08T22:23:24.593Z,72.33
2018-06-08T22:25:52.277Z,74.70
2018-06-08T22:28:20.105Z,76.83
2018-06-08T22:30:47.729Z,87.17
2018-06-08T22:33:15.375Z,78.90
2018-06-08T22:35:43.020Z,78.03
2018-06-08T22:38:10.685Z,73.97
2018-06-08T22:40:38.308Z,75.10
2018-06-08T22:43:05.897Z,75.47
2018-06-08T22:45:33.482Z,83.40
2018-06-08T22:48:01.155Z,85.07
2018-06-08T22:50:28.816Z,82.33
2018-06-08T22:52:56.481Z,73.13
2018-06-08T22:55:24.127Z,77.97
2018-06-08T22:57:51.723Z,83.23
2018-06-08T23:00:19.983Z,84.40
2018-06-08T23:02:47.980Z,79.47
2018-06-08T23:05:15.723Z,74.60
2018-06-08T23:07:43.428Z,75.53
2018-06-08T23:10:11.045Z,81.27
2018-06-08T23:12:38.677Z,75.03
2018-06-08T23:15:06.369Z,73.73
2018-06-08T23:17:33.985Z,77.63
2018-06-08T23:20:01.689Z,75.37
2018-06-08T23:22:29.321Z,75.47
2018-06-08T23:24:56.931Z,75.87
2018-06-08T23:27:24.539Z,79.63
2018-06-08T23:29:52.280Z,77.00
2018-06-08T23:32:20.016Z,85.93
2018-06-08T23:34:47.613Z,73.47
2018-06-08T23:37:15.394Z,83.20
2018-06-08T23:39:43.011Z,74.67
2018-06-08T23:42:10.612Z,74.90
2018-06-08T23:44:38.319Z,76.67
2018-06-08T23:47:05.966Z,81.73
2018-06-08T23:49:33.516Z,76.33
2018-06-08T23:52:01.154Z,78.53
2018-06-08T23:54:28.863Z,84.83
2018-06-08T23:56:56.383Z,80.03
2018-06-08T23:59:24.049Z,84.10
